Date,TemperatureHighF,TemperatureAvgF,TemperatureLowF,DewpointHighF,DewpointAvgF,DewpointLowF,HumidityHigh,HumidityAvg,HumidityLow,PressureMaxIn,PressureMinIn,WindSpeedMaxMPH,WindSpeedAvgMPH,GustSpeedMaxMPH,PrecipitationSumIn
2013-4-1,57.5,45.9,34.6,43.0,35.1,13.0,99,69,38,30.03,29.78,7,3,17,0.01
2013-4-2,40.6,34.7,29.9,17.0,13.9,12.0,53,43,32,30.23,30.04,6,2,12,0.00
2013-4-3,42.8,34.7,29.0,17.0,13.7,11.0,55,43,30,30.42,30.22,6,2,10,0.00
2013-4-4,48.9,37.2,25.9,24.0,17.2,11.0,60,45,30,30.51,30.18,8,1,13,0.00
2013-4-5,58.8,46.6,34.8,33.0,26.0,17.0,91,51,24,30.17,29.88,7,2,12,0.00
2013-4-6,51.9,40.9,30.6,27.0,17.5,13.0,63,41,26,30.40,30.12,7,2,9,0.00
2013-4-7,59.2,48.9,35.8,44.0,35.1,25.0,79,60,45,30.38,30.08,16,4,23,0.00
2013-4-8,75.3,63.2,53.3,50.4,45.6,42.0,69,54,38,30.16,29.94,7,2,13,0.00
2013-4-9,80.3,70.2,60.9,53.7,50.9,45.9,70,52,31,30.02,29.88,7,3,12,0.00
2013-4-10,85.1,72.9,59.9,59.0,54.7,51.0,96,54,39,29.91,29.73,8,3,14,0.12
2013-4-11,71.0,60.6,47.6,62.0,56.1,45.0,96,85,72,29.88,29.77,8,2,11,0.00
2013-4-12,47.4,43.6,41.7,45.0,43.2,42.0,99,98,90,29.87,29.66,7,2,12,0.57
2013-4-13,57.5,48.8,41.4,42.0,37.0,33.0,100,67,45,29.97,29.77,5,1,7,0.00
2013-4-14,58.2,50.6,41.0,36.0,32.0,26.0,76,51,37,30.15,29.98,5,1,8,0.00
2013-4-15,59.4,50.4,44.0,45.0,39.3,30.0,82,66,46,30.32,30.14,6,3,13,0.00
2013-4-16,68.0,56.9,45.4,56.0,50.5,43.0,91,79,65,30.32,30.11,9,2,16,0.00
2013-4-17,68.1,59.7,52.5,56.0,48.3,34.0,95,70,32,30.25,30.08,4,1,8,0.00
2013-4-18,59.7,55.1,51.9,58.0,49.4,37.0,99,82,56,30.26,30.03,8,3,13,0.03
2013-4-19,72.4,62.3,49.7,65.0,59.7,48.0,100,92,74,30.03,29.58,11,4,19,1.35
2013-4-20,53.8,46.8,40.6,47.0,33.1,25.0,95,62,38,30.32,29.73,6,2,10,0.03
2013-4-21,51.9,41.3,31.2,34.0,24.3,20.0,80,53,35,30.61,30.33,6,1,8,0.00
2013-4-22,52.1,43.0,35.0,36.0,31.8,29.0,83,66,47,30.61,30.44,7,2,12,0.00
2013-4-23,52.4,45.4,39.4,43.0,38.6,33.0,90,78,64,30.44,30.14,5,1,8,0.00
2013-4-24,69.7,53.8,41.2,57.0,48.5,40.0,98,84,58,30.13,29.79,10,2,14,0.04
2013-4-25,58.4,49.5,39.0,47.0,31.7,27.0,77,53,33,30.29,29.93,5,2,10,0.00
2013-4-26,60.4,52.4,43.8,36.0,30.4,25.0,66,45,28,30.43,30.29,5,1,9,0.00
2013-4-27,66.5,56.5,46.5,35.0,31.1,25.0,52,39,30,30.43,30.28,3,1,7,0.00
2013-4-28,66.9,56.6,48.8,42.0,37.5,32.0,77,51,32,30.29,30.17,8,2,13,0.00
2013-4-29,53.9,51.8,48.3,54.0,50.1,38.0,99,94,61,30.18,30.09,7,2,11,0.46
2013-4-30,66.9,56.3,48.8,52.0,46.2,33.0,100,73,43,30.30,30.14,5,2,10,0.02